Airfield :
LOGIN :

Register | Disclaimer

   EN    FR    IT 

 










Legend :    VFR   Marginal VFR   IFR   Intensive IFR   Very Intensive IFR
Visi :
Ceiling :
>= 8 km
>= 3000ft
5 to 8 km
1000 to 3000 ft
1500m to 5 km
500 to 1000 ft
800 to 1500m
200 to 500 ft
< 800m
< 200 ft
Symbols :   Thunderstorms  Fog  Heavy snow  Heavy precipitations  Wind > 20 kt
SIGMETs :     Misc.  Thunderstorms  Icing  Turbulence  Mountain Waves  Volcanic Ashes







- Airport Elevation : 1197 ft
- IATA code : SPM


ETAD - Spangdahlem Ab

CURRENT METAR :
  • 230456Z AUTO 20015G22KT 9999 CLR 08/05 A2966 RMK AO2 SLP042 T00800053 TSNO $

EXPIRED METARs :
  • 230356Z AUTO 20011KT 9999 CLR 07/05 A2967 RMK AO2 SLP045 T00670045 TSNO $
  • 230256Z AUTO 20008KT 9999 CLR 05/03 A2969 RMK AO2 SLP052 T00520034 57007 TSNO $

TAF AMD TAF ETAD
Valid from the 22 at 21:00 until the 24 at 01:00 UTC


222059Z 2221/2401 20009KT 9999 SKC QNH2963INS
BECMG 2303/2304 20012G20KT 9999 FEW020 QNH2964INS
BECMG 2307/2308 20015G25KT 9999 BKN050 QNH2970INS
TEMPO 2308/2315 21025G35KT 520004
BECMG 2318/2319 23012G20KT 9000 -SHRA BKN020 QNH2980INS TX14/2314Z TN03/2300Z LAST NO AMDS AFT 2221 NEXT 2503
No reported NOTAMs for that airfield.



MET'MAP, your aeronautical weather chart ! - Copyright ORBIFLY December 2007 - Disclaimer

ORBIFLY MET'MAP TEAM :

Programming & Development : Alexandra Zaïnal
Concept & Development : Baudouin d'Aumeries
Co-Development & Prog : Marc-Olivier Méhu
Technical & hardware support : Manuel Goepfert

Contact : metmap@orbifly.com




SOURCES & CREDITS :

   NOAA